createdAt,value
2022-12-05T19:31:13.378Z,100732.38
2022-12-05T19:33:42.833Z,100730.00
2022-12-05T19:36:21.354Z,100725.78
2022-12-05T19:38:50.538Z,100701.50
2022-12-05T19:41:20.294Z,100736.81
2022-12-05T19:43:47.946Z,100731.97
2022-12-05T19:46:19.311Z,100710.63
2022-12-05T19:48:47.594Z,100726.84
2022-12-05T19:51:14.913Z,100715.84
2022-12-05T19:53:44.175Z,100727.56
2022-12-05T19:56:19.735Z,100723.28
2022-12-05T19:58:47.624Z,100699.63
2022-12-05T20:01:15.881Z,100720.56
2022-12-05T20:03:44.411Z,100717.91
2022-12-05T20:06:11.852Z,100705.34
2022-12-05T20:08:39.893Z,100720.78
2022-12-05T20:11:12.834Z,100712.03
2022-12-05T20:13:48.498Z,100663.53
2022-12-05T20:16:19.065Z,100702.06
2022-12-05T20:18:46.405Z,100672.75
2022-12-05T20:21:16.458Z,100694.22
2022-12-05T20:23:43.481Z,100689.28
2022-12-05T20:26:13.451Z,100700.03
2022-12-05T20:28:40.823Z,100674.13
2022-12-05T20:31:29.815Z,100697.44
2022-12-05T20:33:57.122Z,100654.84
2022-12-05T20:36:29.684Z,100701.72
2022-12-05T20:38:59.437Z,100694.22
2022-12-05T20:41:27.399Z,100694.03
2022-12-05T20:43:57.375Z,100696.66
2022-12-05T20:46:25.193Z,100687.28
2022-12-05T20:48:53.965Z,100682.16
2022-12-05T20:51:29.551Z,100674.75
2022-12-05T20:53:58.751Z,100690.84
2022-12-05T20:56:31.958Z,100654.66
2022-12-05T20:59:01.535Z,100686.19
2022-12-05T21:01:30.813Z,100675.69
2022-12-05T21:03:58.142Z,100663.63
2022-12-05T21:06:34.157Z,100685.09
2022-12-05T21:09:02.354Z,100662.13
2022-12-05T21:11:30.862Z,100678.84
2022-12-05T21:14:05.262Z,100679.78
2022-12-05T21:16:32.651Z,100646.19
2022-12-05T21:19:00.191Z,100656.13
2022-12-05T21:21:28.390Z,100656.94
2022-12-05T21:23:57.514Z,100663.63
2022-12-05T21:26:26.451Z,100622.56
2022-12-05T21:28:54.130Z,100662.13
2022-12-05T21:31:26.957Z,100672.09
2022-12-05T21:33:57.482Z,100666.31
2022-12-05T21:36:26.203Z,100681.56
2022-12-05T21:38:56.257Z,100660.34
2022-12-05T21:41:25.346Z,100641.72
2022-12-05T21:43:55.459Z,100664.25
2022-12-05T21:46:24.468Z,100640.88
2022-12-05T21:48:51.863Z,100657.81
2022-12-05T21:51:18.833Z,100633.34
2022-12-05T21:53:45.940Z,100653.56
2022-12-05T21:56:15.845Z,100658.56
2022-12-05T21:58:44.445Z,100647.56
2022-12-05T22:01:17.588Z,100632.53
2022-12-05T22:03:45.160Z,100646.69
2022-12-05T22:06:14.995Z,100665.94
2022-12-05T22:08:42.181Z,100634.09
2022-12-05T22:11:17.828Z,100659.22
2022-12-05T22:13:44.926Z,100651.22
2022-12-05T22:16:13.462Z,100672.25
2022-12-05T22:18:41.295Z,100667.75
2022-12-05T22:21:11.646Z,100611.53
2022-12-05T22:23:39.269Z,100638.22
2022-12-05T22:26:11.350Z,100639.78
2022-12-05T22:28:38.774Z,100624.34
2022-12-05T22:31:30.507Z,100623.53
2022-12-05T22:34:09.511Z,100610.22
2022-12-05T22:36:36.460Z,100621.84
2022-12-05T22:39:03.668Z,100591.72
2022-12-05T22:41:30.887Z,100598.38
2022-12-05T22:44:00.268Z,100593.16
2022-12-05T22:46:28.760Z,100608.28
2022-12-05T22:48:56.273Z,100606.56
2022-12-05T22:51:23.775Z,100603.03
2022-12-05T22:53:51.918Z,100612.34
2022-12-05T22:56:20.344Z,100603.59
2022-12-05T22:58:48.136Z,100605.63
2022-12-05T23:01:20.569Z,100581.97
2022-12-05T23:03:49.881Z,100603.78
2022-12-05T23:06:18.043Z,100592.78
2022-12-05T23:08:48.068Z,100608.78
2022-12-05T23:11:18.765Z,100571.84
2022-12-05T23:13:46.099Z,100607.94
2022-12-05T23:16:25.469Z,100591.59
2022-12-05T23:18:56.150Z,100599.22
2022-12-05T23:21:31.925Z,100571.47
2022-12-05T23:24:01.443Z,100584.09
2022-12-05T23:26:34.593Z,100591.97
2022-12-05T23:29:01.874Z,100586.72
2022-12-05T23:31:28.901Z,100581.03
2022-12-05T23:34:01.304Z,100559.25
2022-12-05T23:36:30.490Z,100577.59
2022-12-05T23:38:57.405Z,100573.34
2022-12-05T23:41:26.207Z,100574.97
2022-12-05T23:43:53.980Z,100593.34
2022-12-05T23:48:58.420Z,100589.91
2022-12-05T23:51:31.010Z,100585.66
2022-12-05T23:54:02.991Z,100580.53
2022-12-05T23:56:35.857Z,100584.28
2022-12-05T23:59:08.576Z,100571.47
